Time;durP1;ratioP1;P1;durP2;ratioP2;P2;SDS_P1;SDS_P2;PMS_P1;PMS_P2;Temp;Humidity;BMP_temperature;BMP_pressure;BME280_temperature;BME280_humidity;BME280_pressure;Samples;Min_cycle;Max_cycle;Signal;HPM_P1;HPM_P2
2023/04/27 00:00:02;;;;;;;4.60;2.00;;;6.70;99.90;;;;;;5059659;28;20172;-92
2023/04/27 00:02:28;;;;;;;4.00;2.30;;;5.70;99.90;;;;;;5059609;28;20266;-92
2023/04/27 00:04:53;;;;;;;4.13;1.87;;;5.50;99.90;;;;;;5060453;28;20435;-92
2023/04/27 00:07:19;;;;;;;6.90;1.87;;;5.20;99.90;;;;;;5062166;28;20181;-93
2023/04/27 00:09:45;;;;;;;3.97;2.43;;;6.20;1.00;;;;;;5061859;28;20197;-93
2023/04/27 00:12:10;;;;;;;2.50;1.70;;;5.40;1.00;;;;;;5060321;28;20183;-92
2023/04/27 00:14:38;;;;;;;5.83;1.33;;;5.70;1.00;;;;;;5059195;28;20510;-93
2023/04/27 00:17:04;;;;;;;3.83;1.97;;;5.80;1.00;;;;;;5060165;28;20236;-93
2023/04/27 00:19:30;;;;;;;3.00;1.37;;;5.90;1.00;;;;;;5055774;28;20459;-94
2023/04/27 00:21:58;;;;;;;2.53;1.33;;;5.20;1.00;;;;;;5064410;28;20180;-93
2023/04/27 00:24:24;;;;;;;5.50;2.10;;;5.40;1.00;;;;;;5060769;28;20310;-94
2023/04/27 00:26:50;;;;;;;3.47;1.60;;;5.30;1.00;;;;;;5059460;28;20450;-94
2023/04/27 00:29:15;;;;;;;3.93;2.17;;;5.50;1.00;;;;;;5055537;28;20229;-92
2023/04/27 00:31:41;;;;;;;5.17;2.23;;;5.70;1.00;;;;;;5055843;28;20176;-92
2023/04/27 00:34:06;;;;;;;6.20;1.80;;;5.40;1.00;;;;;;5055721;28;20540;-92
2023/04/27 00:36:35;;;;;;;3.80;1.07;;;5.70;1.00;;;;;;5055760;28;20178;-93
2023/04/27 00:39:03;;;;;;;4.73;1.13;;;5.80;1.00;;;;;;5055675;28;20209;-92
2023/04/27 00:41:31;;;;;;;4.80;1.77;;;6.10;1.00;;;;;;5055489;28;20504;-93
2023/04/27 00:44:00;;;;;;;4.30;1.23;;;5.50;1.00;;;;;;5054975;28;20546;-89
2023/04/27 00:46:26;;;;;;;2.30;1.67;;;6.00;1.00;;;;;;5055228;28;20420;-93
2023/04/27 00:48:52;;;;;;;2.33;1.07;;;5.40;1.00;;;;;;5055505;28;20951;-93
2023/04/27 00:51:18;;;;;;;5.10;1.77;;;5.40;1.00;;;;;;5055758;28;20412;-93
2023/04/27 00:53:43;;;;;;;4.80;2.00;;;5.30;1.00;;;;;;5054490;28;20192;-93
2023/04/27 00:56:09;;;;;;;2.93;1.80;;;5.30;1.00;;;;;;5055455;28;20170;-93
2023/04/27 00:58:34;;;;;;;2.70;1.57;;;5.40;1.00;;;;;;5055839;28;20181;-92
2023/04/27 01:01:00;;;;;;;3.27;1.60;;;5.30;1.00;;;;;;5055217;28;20615;-93
2023/04/27 01:03:26;;;;;;;3.50;1.70;;;5.40;1.00;;;;;;5056504;28;20284;-92
2023/04/27 01:05:52;;;;;;;2.47;1.67;;;5.40;1.00;;;;;;5055683;28;20231;-91
2023/04/27 01:08:17;;;;;;;7.27;1.77;;;5.20;1.00;;;;;;5055138;28;20181;-93
2023/04/27 01:10:43;;;;;;;6.47;1.87;;;5.30;1.00;;;;;;5055286;28;20404;-92
2023/04/27 01:13:09;;;;;;;3.07;2.33;;;5.20;1.00;;;;;;5055310;28;20235;-93
2023/04/27 01:15:34;;;;;;;7.03;2.10;;;5.20;1.00;;;;;;5056052;28;20194;-89
2023/04/27 01:18:00;;;;;;;6.00;2.43;;;5.40;1.00;;;;;;5054731;28;20457;-92
2023/04/27 01:20:29;;;;;;;3.90;2.60;;;5.10;1.00;;;;;;5054856;28;20173;-93
2023/04/27 01:22:55;;;;;;;2.87;2.57;;;5.30;1.00;;;;;;5055647;28;20487;-92
2023/04/27 01:25:20;;;;;;;5.33;2.70;;;5.20;1.00;;;;;;5055126;28;20418;-92
2023/04/27 01:27:46;;;;;;;3.23;1.73;;;5.00;1.00;;;;;;5055007;28;20434;-91
2023/04/27 01:30:14;;;;;;;6.50;2.50;;;5.40;1.00;;;;;;5054465;28;20221;-93
2023/04/27 01:32:40;;;;;;;4.60;2.20;;;5.50;1.00;;;;;;5055235;28;20228;-91
2023/04/27 01:35:06;;;;;;;4.70;2.00;;;5.50;1.00;;;;;;5055490;28;20412;-90
2023/04/27 01:37:32;;;;;;;4.77;2.60;;;5.60;1.00;;;;;;5055003;28;20944;-92
2023/04/27 01:39:58;;;;;;;11.53;2.87;;;5.70;1.00;;;;;;5055984;28;20420;-90
2023/04/27 01:42:23;;;;;;;6.63;2.10;;;5.50;1.00;;;;;;5056011;28;20598;-92
2023/04/27 01:44:49;;;;;;;4.70;1.67;;;5.50;1.00;;;;;;5055350;28;20169;-91
2023/04/27 01:47:16;;;;;;;6.70;2.43;;;5.20;1.00;;;;;;5054567;28;20170;-92
2023/04/27 01:49:42;;;;;;;2.93;2.43;;;5.50;1.00;;;;;;5034026;28;20204;-91
2023/04/27 01:52:07;;;;;;;7.30;2.50;;;5.60;1.00;;;;;;5074632;28;20423;-92
2023/04/27 01:54:33;;;;;;;3.17;2.00;;;5.50;1.00;;;;;;5074239;28;20423;-91
2023/04/27 01:57:01;;;;;;;5.80;3.30;;;5.40;1.00;;;;;;5073889;28;20341;-94
2023/04/27 01:59:27;;;;;;;5.00;2.70;;;5.20;1.00;;;;;;5073157;28;20177;-86
2023/04/27 02:01:53;;;;;;;3.50;2.00;;;5.60;1.00;;;;;;5073658;28;20925;-90
2023/04/27 02:04:19;;;;;;;7.00;1.60;;;5.50;1.00;;;;;;5073795;28;20458;-90
2023/04/27 02:06:51;;;;;;;4.33;2.40;;;5.40;1.00;;;;;;5073829;28;20739;-91
2023/04/27 02:09:17;;;;;;;5.87;2.90;;;5.40;1.00;;;;;;5073842;28;20634;-93
2023/04/27 02:11:42;;;;;;;5.70;2.50;;;5.40;1.00;;;;;;5073691;28;20415;-89
2023/04/27 02:14:08;;;;;;;3.97;2.37;;;5.30;1.00;;;;;;5073328;28;20184;-92
2023/04/27 02:16:42;;;;;;;3.50;1.73;;;5.20;1.00;;;;;;5073598;28;20217;-91
2023/04/27 02:19:08;;;;;;;4.90;2.20;;;5.30;1.00;;;;;;5073970;28;20177;-93
2023/04/27 02:21:33;;;;;;;4.40;3.10;;;5.20;1.00;;;;;;5074599;28;20952;-93
2023/04/27 02:24:00;;;;;;;3.10;2.07;;;5.20;1.00;;;;;;5078879;28;20227;-93
2023/04/27 02:26:28;;;;;;;4.90;3.30;;;5.20;1.00;;;;;;5076409;28;20172;-93
2023/04/27 02:28:55;;;;;;;5.50;2.07;;;5.00;1.00;;;;;;5073509;28;20469;-90
2023/04/27 02:31:21;;;;;;;3.03;1.90;;;5.00;1.00;;;;;;5073037;28;20439;-91
2023/04/27 02:33:47;;;;;;;3.97;2.10;;;4.90;1.00;;;;;;5073674;28;20445;-92
2023/04/27 02:36:12;;;;;;;3.80;2.17;;;5.00;1.00;;;;;;5076668;28;20177;-92
2023/04/27 02:38:38;;;;;;;4.07;2.50;;;5.20;1.00;;;;;;5078448;28;20196;-94
2023/04/27 02:41:03;;;;;;;8.23;3.60;;;4.00;1.00;;;;;;5077141;28;20198;-93
2023/04/27 02:43:29;;;;;;;5.90;3.40;;;5.00;14.20;;;;;;5077622;28;20212;-93
2023/04/27 02:45:54;;;;;;;5.23;2.83;;;5.20;39.60;;;;;;5072984;28;20165;-87
2023/04/27 02:48:23;;;;;;;7.13;2.13;;;5.10;57.10;;;;;;5074424;28;20172;-90
2023/04/27 02:50:48;;;;;;;7.70;3.17;;;5.30;56.40;;;;;;5073793;28;20177;-91
2023/04/27 02:53:14;;;;;;;5.07;2.43;;;5.40;50.10;;;;;;5072769;28;20422;-91
2023/04/27 02:55:47;;;;;;;4.13;2.50;;;5.40;43.90;;;;;;5073061;28;20172;-91
2023/04/27 02:58:12;;;;;;;5.57;2.60;;;5.50;39.90;;;;;;5072777;28;20705;-89
2023/04/27 03:00:39;;;;;;;8.97;4.27;;;5.50;36.20;;;;;;5073074;28;20450;-93
2023/04/27 03:03:06;;;;;;;3.90;2.90;;;5.40;29.80;;;;;;5072730;28;20196;-91
2023/04/27 03:05:31;;;;;;;3.83;3.13;;;5.50;25.20;;;;;;5074148;28;20407;-91
2023/04/27 03:07:57;;;;;;;8.57;3.40;;;5.70;22.30;;;;;;5073225;28;20441;-93
2023/04/27 03:10:29;;;;;;;7.50;3.07;;;5.80;13.30;;;;;;5073020;28;20173;-91
2023/04/27 03:12:57;;;;;;;10.03;3.30;;;5.80;6.90;;;;;;5072542;28;20179;-92
2023/04/27 03:15:22;;;;;;;4.73;2.70;;;5.90;4.90;;;;;;5021923;28;20914;-89
2023/04/27 03:17:48;;;;;;;6.93;2.83;;;5.80;7.80;;;;;;5054010;28;20415;-91
2023/04/27 03:20:14;;;;;;;6.90;3.00;;;5.90;5.40;;;;;;5053069;28;20697;-87
2023/04/27 03:22:39;;;;;;;7.27;3.07;;;6.10;1.00;;;;;;5052788;28;20193;-89
2023/04/27 03:25:06;;;;;;;5.60;2.97;;;6.00;1.00;;;;;;5053744;28;20507;-87
2023/04/27 03:27:31;;;;;;;6.87;3.40;;;6.00;1.00;;;;;;5053916;28;20607;-90
2023/04/27 03:29:57;;;;;;;9.23;2.90;;;6.00;1.00;;;;;;5052188;28;20563;-86
2023/04/27 03:32:22;;;;;;;5.57;3.27;;;5.90;1.00;;;;;;5053425;28;20201;-86
2023/04/27 03:34:48;;;;;;;5.87;3.20;;;5.90;1.00;;;;;;5052534;28;20178;-91
2023/04/27 03:37:13;;;;;;;5.57;3.67;;;5.80;1.00;;;;;;5052878;28;20264;-91
2023/04/27 03:39:39;;;;;;;8.40;4.47;;;5.70;1.00;;;;;;5052447;28;20165;-92
2023/04/27 03:42:05;;;;;;;6.57;2.93;;;5.70;1.00;;;;;;5052630;28;20182;-93
2023/04/27 03:44:32;;;;;;;5.93;3.33;;;5.30;1.00;;;;;;5051998;28;20185;-92
2023/04/27 03:46:58;;;;;;;4.63;2.67;;;5.60;1.00;;;;;;5052687;28;20643;-93
2023/04/27 03:49:26;;;;;;;7.33;3.50;;;6.10;1.00;;;;;;5052935;28;20431;-92
2023/04/27 03:51:52;;;;;;;3.33;2.53;;;5.60;1.00;;;;;;5052618;28;20174;-92
2023/04/27 03:54:21;;;;;;;4.97;3.63;;;5.40;1.00;;;;;;5052741;28;20835;-91
2023/04/27 03:56:46;;;;;;;4.20;2.60;;;5.70;1.00;;;;;;5052570;28;20185;-93
2023/04/27 03:59:12;;;;;;;6.53;2.73;;;5.30;1.00;;;;;;5052734;28;20428;-93
2023/04/27 04:01:38;;;;;;;5.70;3.43;;;5.30;1.00;;;;;;5052716;28;20185;-94
2023/04/27 04:04:04;;;;;;;8.10;2.70;;;5.20;1.00;;;;;;5052516;28;20212;-93
2023/04/27 04:06:30;;;;;;;7.27;3.03;;;5.30;1.00;;;;;;5052838;28;20495;-93
2023/04/27 04:08:56;;;;;;;4.60;2.17;;;4.90;1.00;;;;;;5052660;28;20165;-92
2023/04/27 04:11:21;;;;;;;6.07;2.83;;;5.20;1.00;;;;;;5052822;28;20469;-93
2023/04/27 04:13:47;;;;;;;3.90;2.40;;;4.90;1.00;;;;;;5052009;28;20174;-91
2023/04/27 04:16:12;;;;;;;6.33;2.90;;;4.90;1.00;;;;;;5052198;28;20174;-90
2023/04/27 04:18:38;;;;;;;5.67;2.50;;;5.20;1.00;;;;;;5053154;28;20177;-91
2023/04/27 04:21:03;;;;;;;7.37;4.10;;;5.60;1.00;;;;;;5052299;28;20174;-88
2023/04/27 04:23:29;;;;;;;11.73;3.33;;;5.10;14.20;;;;;;5051598;28;20220;-91
2023/04/27 04:25:55;;;;;;;5.60;3.50;;;5.10;6.60;;;;;;5051612;28;20416;-90
2023/04/27 04:28:21;;;;;;;4.50;2.40;;;5.10;1.00;;;;;;5056082;28;20196;-92
2023/04/27 04:30:47;;;;;;;9.17;3.27;;;5.10;1.00;;;;;;5058961;28;20177;-92
2023/04/27 04:33:16;;;;;;;4.83;2.90;;;5.20;1.00;;;;;;5076118;28;20415;-88
2023/04/27 04:35:42;;;;;;;6.87;2.60;;;5.40;1.00;;;;;;5058236;28;20179;-88
2023/04/27 04:38:07;;;;;;;5.83;3.10;;;5.20;11.50;;;;;;5058142;28;20510;-87
2023/04/27 04:40:33;;;;;;;8.77;3.20;;;4.90;30.00;;;;;;5057896;28;20169;-90
2023/04/27 04:42:59;;;;;;;5.53;3.30;;;5.00;51.30;;;;;;5058520;28;20475;-91
2023/04/27 04:45:24;;;;;;;5.73;3.63;;;5.10;74.50;;;;;;5003381;28;20243;-91
2023/04/27 04:47:53;;;;;;;6.77;4.00;;;5.10;91.20;;;;;;5059118;28;20184;-93
2023/04/27 04:50:18;;;;;;;10.53;4.30;;;5.30;71.50;;;;;;5059675;28;20170;-89
2023/04/27 04:52:44;;;;;;;5.47;3.00;;;5.20;67.70;;;;;;5059608;28;20430;-90
2023/04/27 04:55:09;;;;;;;7.47;3.53;;;5.20;59.40;;;;;;5060258;28;20630;-90
2023/04/27 04:57:35;;;;;;;8.03;3.47;;;5.20;64.30;;;;;;5058750;28;20222;-91
2023/04/27 05:00:01;;;;;;;8.40;3.73;;;5.00;69.20;;;;;;5058638;28;20587;-90
2023/04/27 05:02:26;;;;;;;5.40;3.70;;;5.30;64.80;;;;;;5062861;28;20330;-94
2023/04/27 05:04:52;;;;;;;7.60;3.00;;;5.30;69.60;;;;;;5063200;28;20561;-92
2023/04/27 05:07:17;;;;;;;7.50;3.10;;;5.40;84.30;;;;;;5061185;28;20205;-91
2023/04/27 05:09:43;;;;;;;6.10;3.27;;;5.60;85.20;;;;;;5062689;28;20177;-94
2023/04/27 05:12:09;;;;;;;4.37;2.90;;;5.70;92.90;;;;;;5064253;28;20268;-93
2023/04/27 05:14:34;;;;;;;8.00;3.77;;;5.80;87.40;;;;;;5063532;28;20181;-90
2023/04/27 05:17:00;;;;;;;5.93;2.80;;;6.00;85.50;;;;;;5083045;28;20172;-92
2023/04/27 05:19:46;;;;;;;11.97;2.40;;;6.10;80.00;;;;;;5062694;28;20180;-93
2023/04/27 05:22:12;;;;;;;4.73;2.30;;;6.20;88.60;;;;;;5058739;28;20185;-92
2023/04/27 05:24:37;;;;;;;5.37;3.00;;;6.60;63.40;;;;;;5076551;28;20765;-90
2023/04/27 05:27:03;;;;;;;4.97;2.70;;;6.80;37.90;;;;;;5058020;28;20177;-91
2023/04/27 05:29:31;;;;;;;5.83;3.67;;;7.00;1.00;;;;;;5075377;28;20232;-93
2023/04/27 05:31:57;;;;;;;7.33;3.50;;;7.00;1.00;;;;;;5057995;28;20181;-91
2023/04/27 05:34:23;;;;;;;3.77;2.10;;;7.30;1.00;;;;;;5058243;28;20927;-92
2023/04/27 05:36:48;;;;;;;4.70;3.00;;;7.30;1.00;;;;;;5058131;28;20170;-92
2023/04/27 05:39:14;;;;;;;5.60;3.10;;;7.80;1.00;;;;;;5076174;28;20182;-93
2023/04/27 05:41:39;;;;;;;4.60;2.57;;;8.10;1.00;;;;;;5057919;28;20541;-89
2023/04/27 05:44:05;;;;;;;6.87;2.83;;;8.50;1.00;;;;;;5057194;28;20229;-93
2023/04/27 05:46:31;;;;;;;4.90;2.50;;;8.70;1.00;;;;;;5057627;28;20179;-90
2023/04/27 05:48:57;;;;;;;3.90;3.00;;;9.20;1.00;;;;;;5075460;28;20430;-91
2023/04/27 05:51:22;;;;;;;5.10;2.00;;;9.50;99.90;;;;;;5057533;28;20179;-92
2023/04/27 05:53:48;;;;;;;4.00;1.33;;;9.80;1.00;;;;;;5075432;28;20256;-93
2023/04/27 05:56:13;;;;;;;3.60;1.63;;;10.00;1.00;;;;;;5057763;28;20173;-91
2023/04/27 05:58:42;;;;;;;4.40;1.47;;;10.30;1.00;;;;;;5074112;28;20663;-90
2023/04/27 06:01:07;;;;;;;2.67;1.70;;;10.50;1.00;;;;;;5058885;28;20262;-93
2023/04/27 06:03:33;;;;;;;3.60;1.50;;;10.90;99.90;;;;;;5075063;28;20561;-91
2023/04/27 06:06:00;;;;;;;6.30;2.43;;;11.10;99.90;;;;;;5077092;28;20173;-91
2023/04/27 06:08:26;;;;;;;7.77;2.07;;;11.40;1.00;;;;;;5076564;28;20625;-91
2023/04/27 06:10:52;;;;;;;9.33;2.20;;;11.90;1.00;;;;;;5075834;28;20403;-92
2023/04/27 06:13:18;;;;;;;3.53;2.10;;;12.30;99.90;;;;;;5074013;28;20465;-92
2023/04/27 06:15:45;;;;;;;17.33;3.50;;;12.70;16.30;;;;;;5073969;28;20412;-87
2023/04/27 06:18:11;;;;;;;2.37;1.63;;;12.90;1.00;;;;;;5074722;28;20169;-90
2023/04/27 06:20:36;;;;;;;4.27;1.50;;;13.20;1.00;;;;;;5074073;28;20856;-88
2023/04/27 06:23:02;;;;;;;2.70;1.47;;;13.60;1.00;;;;;;5073877;28;20586;-90
2023/04/27 06:25:27;;;;;;;3.50;1.57;;;13.80;1.00;;;;;;5073770;28;20174;-87
2023/04/27 06:28:02;;;;;;;5.90;1.80;;;14.10;1.00;;;;;;5073793;28;20256;-91
2023/04/27 06:30:27;;;;;;;5.23;1.90;;;14.50;1.00;;;;;;5073149;28;20230;-91
2023/04/27 06:32:53;;;;;;;3.30;2.10;;;14.50;1.00;;;;;;5073143;28;20419;-90
2023/04/27 06:35:18;;;;;;;3.03;1.67;;;14.80;1.00;;;;;;5073030;28;20631;-90
2023/04/27 06:37:46;;;;;;;6.33;2.40;;;15.40;1.00;;;;;;5055964;28;20163;-89
2023/04/27 06:40:11;;;;;;;2.80;1.20;;;15.60;1.00;;;;;;5056261;28;20532;-90
2023/04/27 06:42:37;;;;;;;2.63;0.93;;;15.70;1.00;;;;;;5074161;28;20463;-89
2023/04/27 06:45:04;;;;;;;3.07;1.20;;;15.20;1.00;;;;;;5074461;28;20418;-90
2023/04/27 06:47:36;;;;;;;6.00;2.20;;;15.40;1.00;;;;;;5074473;28;20189;-90
2023/04/27 06:50:02;;;;;;;3.67;1.90;;;15.40;1.00;;;;;;5074236;28;20446;-90
2023/04/27 06:52:31;;;;;;;5.90;1.57;;;15.70;1.00;;;;;;5073353;28;20502;-88
2023/04/27 06:54:57;;;;;;;4.23;1.87;;;15.80;1.00;;;;;;5073948;28;20608;-90
2023/04/27 06:57:22;;;;;;;6.00;1.73;;;15.90;1.00;;;;;;5074176;28;20447;-89
2023/04/27 06:59:48;;;;;;;3.63;1.40;;;15.80;1.00;;;;;;5073167;28;20167;-92
2023/04/27 07:02:13;;;;;;;3.30;0.97;;;15.90;1.00;;;;;;5057132;28;20232;-91
2023/04/27 07:04:39;;;;;;;2.67;0.90;;;15.60;99.90;;;;;;5073740;28;20507;-90
2023/04/27 07:07:04;;;;;;;1.80;0.60;;;15.40;99.90;;;;;;5073764;28;20259;-91
2023/04/27 07:09:30;;;;;;;2.97;1.30;;;15.20;99.90;;;;;;5073772;28;20172;-90
2023/04/27 07:11:57;;;;;;;2.57;1.00;;;15.10;99.90;;;;;;5073648;28;20162;-89
2023/04/27 07:14:23;;;;;;;3.00;0.73;;;15.50;99.90;;;;;;5072723;28;20206;-87
2023/04/27 07:16:48;;;;;;;2.83;1.87;;;15.50;99.90;;;;;;5074267;28;20416;-89
2023/04/27 07:19:14;;;;;;;3.93;1.30;;;15.70;99.90;;;;;;5056538;28;20187;-89
2023/04/27 07:21:39;;;;;;;3.70;1.43;;;15.80;99.90;;;;;;5073732;28;20183;-89
2023/04/27 07:24:05;;;;;;;2.63;1.07;;;16.30;99.90;;;;;;5075525;28;20542;-88
2023/04/27 07:26:31;;;;;;;4.27;1.00;;;16.60;99.90;;;;;;5059970;28;20177;-89
2023/04/27 07:28:58;;;;;;;2.10;0.77;;;17.30;99.90;;;;;;5077276;28;20219;-88
2023/04/27 07:31:23;;;;;;;2.90;0.97;;;17.90;99.90;;;;;;5075743;28;20756;-87
2023/04/27 07:33:50;;;;;;;2.53;1.00;;;18.00;99.90;;;;;;5075606;28;20512;-92
2023/04/27 07:36:15;;;;;;;3.37;1.00;;;18.00;99.90;;;;;;5075353;28;20161;-90
2023/04/27 07:38:41;;;;;;;2.30;1.40;;;18.00;99.90;;;;;;5074593;28;20842;-85
2023/04/27 07:41:07;;;;;;;2.80;0.77;;;17.80;99.90;;;;;;5074328;28;20176;-84
2023/04/27 07:43:34;;;;;;;3.57;1.17;;;17.60;99.90;;;;;;5072411;28;20205;-89
2023/04/27 07:45:59;;;;;;;2.17;0.47;;;17.40;99.90;;;;;;5055175;28;20534;-89
2023/04/27 07:48:27;;;;;;;2.73;1.00;;;17.30;99.90;;;;;;5054803;28;20512;-86
2023/04/27 07:50:52;;;;;;;2.53;0.90;;;17.90;99.90;;;;;;5072663;28;20167;-87
2023/04/27 07:53:18;;;;;;;2.50;1.10;;;18.10;99.90;;;;;;5071299;28;20424;-85
2023/04/27 07:55:43;;;;;;;2.00;0.80;;;18.20;99.90;;;;;;5072598;28;20177;-87
2023/04/27 07:58:10;;;;;;;2.43;1.00;;;18.00;99.90;;;;;;5054346;28;20183;-86
2023/04/27 08:00:36;;;;;;;3.33;0.80;;;18.00;99.90;;;;;;5031559;28;20537;-85
2023/04/27 08:03:01;;;;;;;2.20;1.20;;;18.60;99.90;;;;;;5074942;28;20559;-84
2023/04/27 08:05:27;;;;;;;5.43;1.43;;;18.70;99.90;;;;;;5076203;28;20503;-85
2023/04/27 08:07:52;;;;;;;4.73;1.20;;;18.60;99.90;;;;;;5076198;28;20210;-86
2023/04/27 08:10:18;;;;;;;2.97;1.07;;;18.60;99.90;;;;;;5076281;28;20166;-84
2023/04/27 08:12:47;;;;;;;2.57;1.23;;;18.90;99.90;;;;;;5075739;28;20174;-85
2023/04/27 08:15:12;;;;;;;3.80;1.00;;;18.90;99.90;;;;;;5076016;28;20170;-85
2023/04/27 08:17:40;;;;;;;1.73;0.40;;;19.40;99.90;;;;;;5076166;28;20417;-87
2023/04/27 08:20:08;;;;;;;1.40;0.70;;;19.90;99.90;;;;;;5075755;28;20191;-85
2023/04/27 08:22:34;;;;;;;2.40;0.70;;;20.20;99.90;;;;;;5075944;28;20463;-87
2023/04/27 08:24:59;;;;;;;2.33;1.23;;;20.90;99.90;;;;;;5075990;28;20477;-86
2023/04/27 08:27:27;;;;;;;3.03;0.70;;;20.60;99.90;;;;;;5075554;28;20180;-86
2023/04/27 08:29:53;;;;;;;1.70;0.77;;;21.20;99.90;;;;;;5075300;28;20228;-85
2023/04/27 08:32:18;;;;;;;3.13;0.97;;;21.30;99.90;;;;;;5075672;28;20418;-85
2023/04/27 08:34:45;;;;;;;1.23;0.50;;;21.20;99.90;;;;;;5075485;28;20630;-87
2023/04/27 08:37:10;;;;;;;2.97;0.63;;;20.80;99.90;;;;;;5057777;28;20175;-85
2023/04/27 08:39:36;;;;;;;1.67;0.53;;;20.20;99.90;;;;;;5075795;28;20407;-88
2023/04/27 08:42:10;;;;;;;2.63;0.70;;;19.70;99.90;;;;;;5058482;28;20175;-86
2023/04/27 08:44:41;;;;;;;1.40;0.60;;;19.70;99.90;;;;;;5057667;28;20208;-85
2023/04/27 08:47:07;;;;;;;2.40;0.80;;;20.30;99.90;;;;;;5075558;28;20406;-86
2023/04/27 08:49:34;;;;;;;1.00;0.63;;;20.50;99.90;;;;;;5057466;28;20431;-89
2023/04/27 08:52:00;;;;;;;3.20;1.13;;;21.30;99.90;;;;;;5075485;28;20744;-85
2023/04/27 08:54:26;;;;;;;3.10;1.60;;;21.30;99.90;;;;;;5056545;28;20922;-85
2023/04/27 08:56:51;;;;;;;3.30;1.20;;;20.70;99.90;;;;;;5057114;28;20420;-86
2023/04/27 08:59:17;;;;;;;1.60;0.57;;;20.30;99.90;;;;;;5056652;28;20175;-86
2023/04/27 09:01:47;;;;;;;1.23;1.03;;;19.20;99.90;;;;;;5056960;28;20173;-85
2023/04/27 09:04:13;;;;;;;4.03;1.33;;;18.60;99.90;;;;;;5057097;28;20215;-85
2023/04/27 09:06:39;;;;;;;2.57;0.77;;;18.10;99.90;;;;;;5057209;28;20808;-85
2023/04/27 09:09:06;;;;;;;2.33;0.77;;;17.60;99.90;;;;;;5075076;28;20498;-85
2023/04/27 09:11:34;;;;;;;3.30;1.27;;;17.50;99.90;;;;;;5057003;28;20268;-86
2023/04/27 09:14:14;;;;;;;1.43;0.77;;;17.50;99.90;;;;;;5073823;28;20410;-85
2023/04/27 09:16:42;;;;;;;1.10;0.70;;;18.20;99.90;;;;;;5054063;28;20966;-94
2023/04/27 09:19:08;;;;;;;2.40;0.60;;;19.30;99.90;;;;;;5057342;28;20464;-89
2023/04/27 09:21:33;;;;;;;3.33;0.47;;;20.20;99.90;;;;;;5057247;28;20427;-93
2023/04/27 09:24:11;;;;;;;2.70;1.60;;;20.50;99.90;;;;;;5075579;28;20212;-91
2023/04/27 09:26:38;;;;;;;2.67;0.87;;;19.90;99.90;;;;;;5058466;28;20173;-89
2023/04/27 09:29:03;;;;;;;4.20;0.93;;;20.20;99.90;;;;;;5056616;28;20479;-91
2023/04/27 09:31:35;;;;;;;3.60;1.10;;;19.00;99.90;;;;;;5075146;28;20411;-92
2023/04/27 09:34:04;;;;;;;2.43;0.77;;;18.30;99.90;;;;;;5057998;28;20175;-94
2023/04/27 09:36:31;;;;;;;2.33;1.00;;;17.70;99.90;;;;;;5059192;28;20409;-92
2023/04/27 09:38:57;;;;;;;3.40;0.77;;;16.80;99.90;;;;;;5057533;28;20449;-90
2023/04/27 09:41:24;;;;;;;2.83;0.57;;;17.00;99.90;;;;;;5076014;28;20420;-90
2023/04/27 09:43:51;;;;;;;2.50;1.10;;;17.90;99.90;;;;;;5057902;28;20471;-90
2023/04/27 09:46:17;;;;;;;2.33;0.93;;;17.50;99.90;;;;;;5057948;28;20518;-91
2023/04/27 09:48:42;;;;;;;5.00;0.87;;;17.90;99.90;;;;;;5058083;28;20450;-91
2023/04/27 09:51:08;;;;;;;1.90;1.07;;;19.50;99.90;;;;;;5075411;28;20202;-93
2023/04/27 09:53:48;;;;;;;2.27;0.70;;;20.10;99.90;;;;;;5059527;28;20181;-93
2023/04/27 09:56:48;;;;;;;1.70;0.73;;;21.90;99.90;;;;;;5076058;28;20196;-88
2023/04/27 09:59:36;;;;;;;2.60;0.90;;;22.70;99.90;;;;;;5075456;28;20455;-87
2023/04/27 10:02:03;;;;;;;2.30;0.90;;;22.00;99.90;;;;;;5056037;28;20823;-90
2023/04/27 10:05:01;;;;;;;3.60;1.00;;;21.20;99.90;;;;;;5059172;28;20486;-90
2023/04/27 10:07:28;;;;;;;1.40;1.00;;;20.30;99.90;;;;;;5059722;28;21201;-90
2023/04/27 10:09:53;;;;;;;1.10;0.70;;;19.60;99.90;;;;;;5077437;28;20425;-93
2023/04/27 10:12:21;;;;;;;1.37;0.93;;;20.20;99.90;;;;;;5061452;28;20415;-95
2023/04/27 10:14:54;;;;;;;1.70;0.87;;;20.80;99.90;;;;;;5058304;28;20177;-93
2023/04/27 10:17:27;;;;;;;2.67;0.77;;;21.90;99.90;;;;;;5057467;28;20513;-94
2023/04/27 10:19:58;;;;;;;1.37;0.67;;;23.10;99.90;;;;;;5016377;28;20419;-85
2023/04/27 10:22:40;;;;;;;1.40;1.27;;;23.00;99.90;;;;;;5072684;28;20411;-87
2023/04/27 10:25:39;;;;;;;1.30;0.70;;;22.10;99.90;;;;;;5072551;28;20520;-88
2023/04/27 10:28:06;;;;;;;2.00;0.60;;;21.40;99.90;;;;;;5070898;28;20422;-85
2023/04/27 10:30:37;;;;;;;1.43;0.50;;;20.80;99.90;;;;;;5054917;28;20990;-87
2023/04/27 10:33:06;;;;;;;1.83;1.13;;;20.10;99.90;;;;;;5072469;28;20446;-85
2023/04/27 10:35:36;;;;;;;1.10;0.80;;;19.20;99.90;;;;;;5072549;28;20946;-83
2023/04/27 10:38:20;;;;;;;1.40;0.70;;;18.50;99.90;;;;;;5072439;28;20487;-84
2023/04/27 10:40:55;;;;;;;1.73;0.60;;;18.00;99.90;;;;;;5071551;28;20967;-88
2023/04/27 10:43:24;;;;;;;2.10;0.70;;;17.90;99.90;;;;;;5054344;28;20843;-89
2023/04/27 10:45:50;;;;;;;1.17;0.50;;;18.80;99.90;;;;;;5071394;28;20476;-88
2023/04/27 10:48:16;;;;;;;2.80;0.50;;;19.90;99.90;;;;;;5073132;28;20411;-90
2023/04/27 10:50:43;;;;;;;1.37;0.63;;;20.80;99.90;;;;;;5073178;28;20256;-88
2023/04/27 10:53:09;;;;;;;1.97;0.53;;;21.60;99.90;;;;;;5072531;28;20172;-87
2023/04/27 10:55:35;;;;;;;4.07;0.97;;;21.50;99.90;;;;;;5054853;28;20787;-91
2023/04/27 10:58:01;;;;;;;1.00;0.43;;;21.70;99.90;;;;;;5071051;28;20242;-85
2023/04/27 11:00:32;;;;;;;2.07;0.83;;;21.00;99.90;;;;;;5072108;28;20835;-84
2023/04/27 11:03:14;;;;;;;1.93;1.07;;;20.90;99.90;;;;;;5054490;28;20530;-85
2023/04/27 11:05:41;;;;;;;2.07;0.83;;;20.60;99.90;;;;;;5071983;28;20492;-87
2023/04/27 11:08:13;;;;;;;1.03;0.57;;;20.10;99.90;;;;;;5071160;28;20448;-86
2023/04/27 11:10:42;;;;;;;2.53;0.27;;;19.90;99.90;;;;;;5073388;28;20407;-81
2023/04/27 11:13:13;;;;;;;2.83;0.80;;;19.50;99.90;;;;;;5070767;28;20419;-89
2023/04/27 11:15:50;;;;;;;1.33;0.63;;;19.00;99.90;;;;;;5072387;28;20411;-88
2023/04/27 11:18:17;;;;;;;3.47;1.07;;;18.70;99.90;;;;;;5055019;28;20418;-87
2023/04/27 11:20:46;;;;;;;2.93;0.83;;;18.30;99.90;;;;;;5073737;28;20909;-90
2023/04/27 11:23:35;;;;;;;1.43;0.60;;;17.90;99.90;;;;;;5071789;28;20479;-87
2023/04/27 11:26:17;;;;;;;2.03;0.60;;;17.80;99.90;;;;;;5030543;28;20773;-85
2023/04/27 11:29:00;;;;;;;3.93;0.63;;;18.10;99.90;;;;;;5072325;28;20458;-84
2023/04/27 11:31:26;;;;;;;2.47;0.97;;;18.00;99.90;;;;;;5072799;28;20426;-85
2023/04/27 11:33:53;;;;;;;2.27;1.10;;;18.10;99.90;;;;;;5072801;28;20417;-84
2023/04/27 11:36:20;;;;;;;2.13;1.23;;;17.80;99.90;;;;;;5072515;28;20444;-84
2023/04/27 11:38:47;;;;;;;1.77;0.80;;;17.60;99.90;;;;;;5076821;28;20867;-86
2023/04/27 11:41:13;;;;;;;2.70;1.30;;;17.60;99.90;;;;;;5059018;28;20462;-82
2023/04/27 11:43:48;;;;;;;1.40;1.00;;;17.00;99.90;;;;;;5074566;28;20569;-85
2023/04/27 11:46:13;;;;;;;2.13;0.93;;;16.50;99.90;;;;;;5076653;28;20410;-85
2023/04/27 11:48:39;;;;;;;4.70;1.27;;;16.90;99.90;;;;;;5058643;28;20514;-85
2023/04/27 11:51:06;;;;;;;3.83;1.60;;;17.50;99.90;;;;;;5058529;28;20707;-85
2023/04/27 11:53:37;;;;;;;1.43;0.83;;;17.80;99.90;;;;;;5058496;28;20560;-85
2023/04/27 11:56:06;;;;;;;2.60;1.33;;;18.00;99.90;;;;;;5041714;28;21176;-85
2023/04/27 11:58:33;;;;;;;2.07;1.47;;;18.20;99.90;;;;;;5041648;28;20438;-84
2023/04/27 12:00:59;;;;;;;2.27;1.23;;;18.10;99.90;;;;;;5058608;28;20939;-84
2023/04/27 12:03:26;;;;;;;2.67;1.73;;;17.80;99.90;;;;;;5058082;28;20477;-86
2023/04/27 12:05:52;;;;;;;3.93;1.37;;;17.50;99.90;;;;;;5076299;28;20175;-84
2023/04/27 12:08:21;;;;;;;3.90;1.03;;;17.40;99.90;;;;;;5058246;28;20427;-85
2023/04/27 12:10:47;;;;;;;3.47;1.30;;;17.50;99.90;;;;;;5076052;28;20171;-86
2023/04/27 12:13:13;;;;;;;2.50;1.87;;;17.40;99.90;;;;;;5057572;28;20472;-85
2023/04/27 12:15:39;;;;;;;4.83;2.50;;;17.10;99.90;;;;;;5062760;28;20166;-87
2023/04/27 12:18:05;;;;;;;3.00;2.13;;;16.70;99.90;;;;;;5077902;28;20177;-83
2023/04/27 12:20:31;;;;;;;3.67;1.80;;;16.80;99.90;;;;;;5078138;28;20419;-86
2023/04/27 12:22:56;;;;;;;1.73;0.90;;;16.80;99.90;;;;;;5078090;28;21012;-87
2023/04/27 12:25:22;;;;;;;1.80;1.23;;;16.80;99.90;;;;;;5077559;28;20287;-83
2023/04/27 12:27:48;;;;;;;5.77;1.40;;;16.90;99.90;;;;;;5027952;28;20195;-85
2023/04/27 12:30:14;;;;;;;3.63;1.60;;;17.10;99.90;;;;;;5060837;28;20217;-85
2023/04/27 12:33:11;;;;;;;4.13;1.70;;;18.00;99.90;;;;;;5070217;28;20753;-85
2023/04/27 12:35:37;;;;;;;5.37;1.83;;;17.70;99.90;;;;;;5053793;28;20188;-84
2023/04/27 12:38:02;;;;;;;4.60;1.50;;;18.20;99.90;;;;;;5054514;28;20410;-85
2023/04/27 12:40:28;;;;;;;1.87;1.50;;;18.80;99.90;;;;;;5054412;28;20179;-85
2023/04/27 12:42:54;;;;;;;5.90;1.70;;;19.40;99.90;;;;;;5053754;28;20208;-86
2023/04/27 12:45:19;;;;;;;3.73;1.73;;;19.60;99.90;;;;;;5053997;28;20262;-87
2023/04/27 12:47:45;;;;;;;2.60;1.00;;;19.40;99.90;;;;;;5054083;28;20624;-88
2023/04/27 12:50:11;;;;;;;7.53;1.60;;;18.60;99.90;;;;;;5054452;28;20235;-87
2023/04/27 12:52:36;;;;;;;1.50;1.33;;;18.30;99.90;;;;;;5054079;28;20177;-86
2023/04/27 12:55:03;;;;;;;1.80;1.07;;;18.00;99.90;;;;;;5054099;28;20203;-86